createdAt,value
2023-02-05T00:00:49.354Z,22.93
2023-02-05T00:01:49.416Z,22.93
2023-02-05T00:02:49.330Z,22.92
2023-02-05T00:03:49.320Z,22.93
2023-02-05T00:55:30.014Z,22.49
2023-02-05T00:56:30.916Z,22.71
2023-02-05T00:57:30.910Z,22.77
2023-02-05T00:58:30.898Z,22.82
2023-02-05T00:59:30.891Z,22.85
2023-02-05T01:00:30.899Z,22.87
2023-02-05T01:01:30.997Z,22.88
2023-02-05T01:02:30.895Z,22.90
2023-02-05T01:03:30.854Z,22.90
2023-02-05T01:04:30.843Z,22.91
2023-02-05T01:05:30.933Z,22.91
2023-02-05T01:06:30.861Z,22.91
2023-02-05T01:07:30.819Z,22.92
2023-02-05T01:08:30.818Z,22.92
2023-02-05T01:09:30.802Z,22.93
2023-02-05T01:10:30.792Z,22.93
2023-02-05T01:11:30.814Z,22.93
2023-02-05T01:12:30.775Z,22.93
2023-02-05T01:13:30.770Z,22.93
2023-02-05T01:14:30.815Z,22.93
2023-02-05T01:15:30.793Z,22.92
2023-02-05T01:16:30.737Z,22.92
2023-02-05T01:17:30.735Z,22.92
2023-02-05T01:18:30.716Z,22.93
2023-02-05T01:19:30.711Z,22.92
2023-02-05T01:20:30.709Z,22.92
2023-02-05T01:21:30.697Z,22.92
2023-02-05T01:22:30.675Z,22.92
2023-02-05T01:23:30.668Z,22.92
2023-02-05T01:24:30.655Z,22.92
2023-02-05T01:25:31.562Z,22.93
2023-02-05T01:26:30.638Z,22.93
2023-02-05T01:27:30.655Z,22.93
2023-02-05T01:28:30.619Z,22.93
2023-02-05T01:29:30.612Z,22.92
2023-02-05T01:30:30.604Z,22.93
2023-02-05T01:31:30.680Z,22.92
2023-02-05T01:32:30.612Z,22.92
2023-02-05T01:33:30.576Z,22.92
2023-02-05T01:34:30.568Z,22.92
2023-02-05T01:35:30.562Z,22.92
2023-02-05T01:36:30.571Z,22.92
2023-02-05T01:37:30.537Z,22.92
2023-02-05T01:38:30.558Z,22.92
2023-02-05T01:39:30.546Z,22.92
2023-02-05T01:40:30.511Z,22.92
2023-02-05T01:41:30.500Z,22.91
2023-02-05T01:42:30.495Z,22.92
2023-02-05T01:43:30.525Z,22.91
2023-02-05T01:44:30.467Z,22.92
2023-02-05T01:45:30.457Z,22.91
2023-02-05T01:46:30.529Z,22.92
2023-02-05T01:47:30.501Z,22.92
2023-02-05T01:48:30.456Z,22.91
2023-02-05T01:49:30.418Z,22.91
2023-02-05T01:50:30.418Z,22.91
2023-02-05T01:51:30.439Z,22.92
2023-02-05T01:52:30.385Z,22.91
2023-02-05T01:53:30.385Z,22.91
2023-02-05T01:54:30.373Z,22.92
2023-02-05T01:55:30.488Z,22.92
2023-02-05T01:56:30.367Z,22.91
2023-02-05T01:57:30.340Z,22.92
2023-02-05T01:58:30.334Z,22.92
2023-02-05T01:59:30.345Z,22.92
2023-02-05T02:00:30.309Z,22.91
2023-02-05T02:01:30.413Z,22.91
2023-02-05T02:02:30.288Z,22.91
2023-02-05T02:03:30.287Z,22.91
2023-02-05T02:04:30.282Z,22.91
2023-02-05T02:05:30.289Z,22.91
2023-02-05T02:06:30.286Z,22.91
2023-02-05T02:07:30.247Z,22.91
2023-02-05T02:08:30.234Z,22.91
2023-02-05T02:09:30.241Z,22.92
2023-02-05T02:10:30.221Z,22.92
2023-02-05T02:11:30.249Z,22.91
2023-02-05T02:12:30.204Z,22.92
2023-02-05T02:13:30.199Z,22.91
2023-02-05T02:14:30.184Z,22.91
2023-02-05T02:15:30.209Z,22.90
2023-02-05T02:16:30.205Z,22.91
2023-02-05T02:17:30.167Z,22.90
2023-02-05T02:18:30.175Z,22.91
2023-02-05T02:19:30.155Z,22.90
2023-02-05T02:20:30.158Z,22.90
2023-02-05T02:21:30.123Z,22.90
2023-02-05T02:22:30.114Z,22.90
2023-02-05T02:23:30.136Z,22.90
2023-02-05T02:24:30.091Z,22.90
2023-02-05T02:25:30.664Z,22.90
2023-02-05T02:26:31.617Z,22.90
2023-02-05T02:27:30.075Z,22.90
2023-02-05T02:28:30.093Z,22.90
2023-02-05T02:29:30.047Z,22.89
2023-02-05T02:30:30.077Z,22.89
2023-02-05T02:31:30.124Z,22.89
2023-02-05T02:32:30.024Z,22.89
2023-02-05T02:33:30.073Z,22.89
2023-02-05T02:34:30.006Z,22.89
2023-02-05T02:35:30.032Z,22.89
2023-02-05T02:36:29.988Z,22.89
2023-02-05T02:37:29.968Z,22.89
2023-02-05T02:38:29.959Z,22.89
2023-02-05T02:39:29.948Z,22.89
2023-02-05T02:40:29.947Z,22.89
2023-02-05T02:41:29.962Z,22.89
2023-02-05T02:42:29.922Z,22.89
2023-02-05T02:43:29.905Z,22.89
2023-02-05T02:44:29.903Z,22.89
2023-02-05T02:45:29.890Z,22.89
2023-02-05T02:46:29.922Z,22.89
2023-02-05T02:47:29.900Z,22.89
2023-02-05T02:48:29.870Z,22.89
2023-02-05T02:49:29.855Z,22.89
2023-02-05T02:50:29.853Z,22.89
2023-02-05T02:51:29.839Z,22.88
2023-02-05T02:52:29.838Z,22.89
2023-02-05T02:53:29.824Z,22.89
2023-02-05T02:54:29.809Z,22.88
2023-02-05T02:55:29.836Z,22.88
2023-02-05T02:56:29.793Z,22.88
2023-02-05T02:57:29.891Z,22.88
2023-02-05T02:58:29.779Z,22.88
2023-02-05T02:59:29.768Z,22.87
2023-02-05T03:00:29.828Z,22.88
2023-02-05T03:01:29.755Z,22.88
2023-02-05T03:02:29.736Z,22.88
2023-02-05T03:03:29.774Z,22.87
2023-02-05T03:04:29.752Z,22.87
2023-02-05T03:05:29.726Z,22.88
2023-02-05T03:06:29.696Z,22.88
2023-02-05T03:07:29.687Z,22.88
2023-02-05T03:08:29.679Z,22.88
2023-02-05T03:09:29.703Z,22.88
2023-02-05T03:10:29.675Z,22.87
2023-02-05T03:11:29.646Z,22.87
2023-02-05T03:12:29.692Z,22.86
2023-02-05T03:13:29.639Z,22.87
2023-02-05T03:14:29.625Z,22.87
2023-02-05T03:15:29.620Z,22.87
2023-02-05T03:16:29.667Z,22.87
2023-02-05T03:17:29.659Z,22.87
2023-02-05T03:18:29.592Z,22.86
2023-02-05T03:19:29.605Z,22.87
2023-02-05T03:20:29.568Z,22.86
2023-02-05T03:21:29.581Z,22.86
2023-02-05T03:22:29.581Z,22.86
2023-02-05T03:23:29.546Z,22.86
2023-02-05T03:24:29.533Z,22.86
2023-02-05T03:25:29.525Z,22.86
2023-02-05T03:26:29.550Z,22.86
2023-02-05T03:27:29.504Z,22.86
2023-02-05T03:28:29.491Z,22.85
2023-02-05T03:29:29.490Z,22.85
2023-02-05T03:30:29.619Z,22.85
2023-02-05T03:31:29.553Z,22.85
2023-02-05T03:32:29.461Z,22.85
2023-02-05T03:33:29.444Z,22.85
2023-02-05T03:34:29.436Z,22.85
2023-02-05T03:35:29.487Z,22.85
2023-02-05T03:36:29.418Z,22.85
2023-02-05T03:37:29.413Z,22.85
2023-02-05T03:38:29.424Z,22.85
2023-02-05T03:39:29.387Z,22.84
2023-02-05T03:40:29.398Z,22.84
2023-02-05T03:41:29.368Z,22.84
2023-02-05T03:42:29.355Z,22.85
2023-02-05T03:43:29.354Z,22.84
2023-02-05T03:44:29.342Z,22.84
2023-02-05T03:45:29.370Z,22.85
2023-02-05T03:46:29.375Z,22.85
2023-02-05T03:47:29.322Z,22.85
2023-02-05T03:48:29.304Z,22.85
2023-02-05T03:49:29.298Z,22.84
2023-02-05T03:50:29.334Z,22.85
2023-02-05T03:51:29.301Z,22.84
2023-02-05T03:52:29.270Z,22.84
2023-02-05T03:53:29.312Z,22.84
2023-02-05T03:54:29.254Z,22.84
2023-02-05T03:55:29.234Z,22.84
2023-02-05T03:56:29.224Z,22.84
2023-02-05T03:57:29.231Z,22.84
2023-02-05T03:58:29.227Z,22.84
2023-02-05T03:59:29.202Z,22.84
2023-02-05T04:00:29.219Z,22.84
2023-02-05T04:01:29.182Z,22.84
2023-02-05T04:02:29.230Z,22.84
2023-02-05T04:03:29.151Z,22.84
2023-02-05T04:04:29.143Z,22.83
2023-02-05T04:05:29.209Z,22.83
2023-02-05T04:06:29.134Z,22.83
2023-02-05T04:07:29.152Z,22.83
2023-02-05T04:08:29.113Z,22.83
2023-02-05T04:09:29.104Z,22.82
2023-02-05T04:10:29.131Z,22.82
2023-02-05T04:11:29.079Z,22.82
2023-02-05T04:12:29.071Z,22.83
2023-02-05T04:13:29.060Z,22.83
2023-02-05T04:14:29.085Z,22.83
2023-02-05T04:15:29.046Z,22.83
2023-02-05T04:16:29.113Z,22.83
2023-02-05T04:17:29.046Z,22.82
2023-02-05T04:18:29.017Z,22.83
2023-02-05T04:19:29.004Z,22.83
2023-02-05T04:20:29.024Z,22.82
2023-02-05T04:21:28.992Z,22.83
2023-02-05T04:22:28.976Z,22.83
2023-02-05T04:23:29.003Z,22.82
2023-02-05T04:24:28.958Z,22.82
2023-02-05T04:25:29.021Z,22.82
2023-02-05T04:26:28.970Z,22.83
2023-02-05T04:27:28.933Z,22.82
2023-02-05T04:28:28.922Z,22.82
2023-02-05T04:29:28.919Z,22.83
2023-02-05T04:30:28.967Z,22.83
2023-02-05T04:31:28.973Z,22.83
2023-02-05T04:32:28.899Z,22.82
2023-02-05T04:33:28.884Z,22.83
2023-02-05T04:34:28.868Z,22.83
2023-02-05T04:35:28.869Z,22.83
2023-02-05T04:36:28.912Z,22.82
2023-02-05T04:37:28.846Z,22.82
2023-02-05T04:38:28.841Z,22.82
2023-02-05T04:39:28.864Z,22.82
2023-02-05T04:40:28.823Z,22.82
2023-02-05T04:41:28.839Z,22.82
2023-02-05T04:42:28.803Z,22.82
2023-02-05T04:43:28.793Z,22.82
2023-02-05T04:44:28.780Z,22.82
2023-02-05T04:45:28.773Z,22.82
2023-02-05T04:46:28.763Z,22.82
2023-02-05T04:47:28.755Z,22.82
2023-02-05T04:48:28.740Z,22.82
2023-02-05T04:49:28.740Z,22.82
2023-02-05T04:50:28.724Z,22.81
2023-02-05T04:51:28.716Z,22.80
2023-02-05T04:52:28.712Z,22.81
2023-02-05T04:53:28.704Z,22.82
2023-02-05T04:54:28.690Z,22.81
2023-02-05T04:55:28.710Z,22.81
2023-02-05T04:56:28.677Z,22.82
2023-02-05T04:57:28.665Z,22.81
2023-02-05T04:58:28.660Z,22.81
2023-02-05T04:59:28.647Z,22.81
2023-02-05T05:00:28.647Z,22.82
2023-02-05T05:01:28.658Z,22.81
2023-02-05T05:02:28.648Z,22.81
2023-02-05T05:03:28.615Z,22.80
2023-02-05T05:04:28.603Z,22.81
2023-02-05T05:05:28.685Z,22.80
2023-02-05T05:06:28.578Z,22.81
2023-02-05T05:07:28.581Z,22.80
2023-02-05T05:08:28.563Z,22.80
2023-02-05T05:09:28.553Z,22.79
2023-02-05T05:10:28.542Z,22.80
2023-02-05T05:11:28.563Z,22.80
2023-02-05T05:12:28.529Z,22.80
2023-02-05T05:13:28.515Z,22.81
2023-02-05T05:14:28.508Z,22.80
2023-02-05T05:15:28.498Z,22.81
2023-02-05T05:16:28.492Z,22.80
2023-02-05T05:17:28.476Z,22.81
2023-02-05T05:18:28.467Z,22.80
2023-02-05T05:19:28.477Z,22.80
2023-02-05T05:20:28.451Z,22.80
2023-02-05T05:21:28.440Z,22.80
2023-02-05T05:22:28.440Z,22.80
2023-02-05T05:23:28.420Z,22.80
2023-02-05T05:24:28.418Z,22.80
2023-02-05T05:25:28.406Z,22.79
2023-02-05T05:26:28.394Z,22.80
2023-02-05T05:27:28.418Z,22.80
2023-02-05T05:28:28.381Z,22.80
2023-02-05T05:29:28.369Z,22.80
2023-02-05T05:30:28.365Z,22.80
2023-02-05T05:31:28.357Z,22.80
2023-02-05T05:32:28.345Z,22.80
2023-02-05T05:33:28.346Z,22.80
2023-02-05T05:34:28.333Z,22.80
2023-02-05T05:35:28.323Z,22.80
2023-02-05T05:36:28.315Z,22.80
2023-02-05T05:37:28.312Z,22.80
2023-02-05T05:38:28.296Z,22.80
2023-02-05T05:39:28.282Z,22.80
2023-02-05T05:40:28.279Z,22.80
2023-02-05T05:41:28.262Z,22.79
2023-02-05T05:42:28.257Z,22.80
2023-02-05T05:43:28.325Z,22.80
2023-02-05T05:44:28.248Z,22.80
2023-02-05T05:45:28.230Z,22.80
2023-02-05T05:46:28.219Z,22.80
2023-02-05T05:47:28.213Z,22.80
2023-02-05T05:48:28.205Z,22.80
2023-02-05T05:49:28.207Z,22.80
2023-02-05T05:50:28.188Z,22.80
2023-02-05T05:51:28.183Z,22.80
2023-02-05T05:52:28.176Z,22.80
2023-02-05T05:53:28.163Z,22.79
2023-02-05T05:54:28.145Z,22.80
2023-02-05T05:55:28.158Z,22.80
2023-02-05T05:56:28.145Z,22.79
2023-02-05T05:57:28.131Z,22.80
2023-02-05T05:58:28.111Z,22.80
2023-02-05T05:59:28.129Z,22.80
2023-02-05T06:00:28.098Z,22.79
2023-02-05T06:01:28.087Z,22.80
2023-02-05T06:02:28.084Z,22.79
2023-02-05T06:03:28.065Z,22.79
2023-02-05T06:04:28.149Z,22.79
2023-02-05T06:05:28.044Z,22.80
2023-02-05T06:06:28.043Z,22.79
2023-02-05T06:07:28.023Z,22.80
2023-02-05T06:08:28.019Z,22.79
2023-02-05T06:09:28.014Z,22.79
2023-02-05T06:10:27.997Z,22.80
2023-02-05T06:11:27.999Z,22.80
2023-02-05T06:12:27.980Z,22.81
2023-02-05T06:13:27.971Z,22.80
2023-02-05T06:14:27.966Z,22.80
2023-02-05T06:15:27.973Z,22.79
2023-02-05T06:16:27.940Z,22.80
2023-02-05T06:17:27.935Z,22.80
2023-02-05T06:18:27.925Z,22.79
2023-02-05T06:19:27.920Z,22.79
2023-02-05T06:20:27.914Z,22.79
2023-02-05T06:21:27.899Z,22.79
2023-02-05T06:22:27.885Z,22.79
2023-02-05T06:23:27.874Z,22.79
2023-02-05T06:24:29.569Z,22.79
2023-02-05T06:25:27.881Z,22.79
2023-02-05T06:26:27.846Z,22.79
2023-02-05T06:27:27.853Z,22.79
2023-02-05T06:28:27.838Z,22.79
2023-02-05T06:29:27.824Z,22.79
2023-02-05T06:30:27.825Z,22.79
2023-02-05T06:31:27.948Z,22.78
2023-02-05T06:32:27.787Z,22.79
2023-02-05T06:33:27.794Z,22.79
2023-02-05T06:34:27.783Z,22.79
2023-02-05T06:35:27.767Z,22.79
2023-02-05T06:36:27.758Z,22.79
2023-02-05T06:37:45.482Z,22.79
2023-02-05T06:38:27.745Z,22.78
2023-02-05T06:39:27.731Z,22.79
2023-02-05T06:40:27.713Z,22.79
2023-02-05T06:41:27.713Z,22.79
2023-02-05T06:42:27.695Z,22.79
2023-02-05T06:43:27.692Z,22.79
2023-02-05T06:44:27.684Z,22.79
2023-02-05T06:45:27.666Z,22.79
2023-02-05T06:46:27.720Z,22.79
2023-02-05T06:47:27.672Z,22.79
2023-02-05T06:48:27.643Z,22.78
2023-02-05T06:49:27.631Z,22.78
2023-02-05T06:50:27.625Z,22.79
2023-02-05T06:51:27.612Z,22.78
2023-02-05T06:52:27.606Z,22.78
2023-02-05T06:53:27.592Z,22.79
2023-02-05T06:54:27.583Z,22.79
2023-02-05T06:55:27.578Z,22.78
2023-02-05T06:56:27.612Z,22.79
2023-02-05T06:57:27.554Z,22.79
2023-02-05T06:58:27.549Z,22.79
2023-02-05T06:59:27.538Z,22.79
2023-02-05T07:00:27.522Z,22.79
2023-02-05T07:01:27.588Z,22.79
2023-02-05T07:02:27.589Z,22.79
2023-02-05T07:03:27.533Z,22.79
2023-02-05T07:04:27.492Z,22.79
2023-02-05T07:05:27.488Z,22.78
2023-02-05T07:06:27.476Z,22.79
2023-02-05T07:07:27.465Z,22.79
2023-02-05T07:08:27.451Z,22.79
2023-02-05T07:09:27.446Z,22.79
2023-02-05T07:10:27.433Z,22.79
2023-02-05T07:11:27.428Z,22.79
2023-02-05T07:12:27.424Z,22.80
2023-02-05T07:13:27.404Z,22.80
2023-02-05T07:14:27.429Z,22.80
2023-02-05T07:15:27.387Z,22.80
2023-02-05T07:16:27.374Z,22.80
2023-02-05T07:17:27.378Z,22.80
2023-02-05T07:18:27.363Z,22.79
2023-02-05T07:19:27.382Z,22.80
2023-02-05T07:20:27.401Z,22.80
2023-02-05T07:21:27.336Z,22.79
2023-02-05T07:22:27.343Z,22.80
2023-02-05T07:23:27.317Z,22.80
2023-02-05T07:24:27.306Z,22.79
2023-02-05T07:25:27.298Z,22.80
2023-02-05T07:26:27.289Z,22.80
2023-02-05T07:27:27.278Z,22.80
2023-02-05T07:28:27.281Z,22.80
2023-02-05T07:29:27.263Z,22.80
2023-02-05T07:30:27.251Z,22.80
2023-02-05T07:31:28.149Z,22.80
2023-02-05T07:32:27.238Z,22.80
2023-02-05T07:33:27.221Z,22.80
2023-02-05T07:34:27.228Z,22.80
2023-02-05T07:35:27.263Z,22.80
2023-02-05T07:36:26.189Z,22.81
2023-02-05T07:37:27.179Z,22.80
2023-02-05T07:38:27.585Z,22.80
2023-02-05T07:39:27.168Z,22.80
2023-02-05T07:40:27.151Z,22.80
2023-02-05T07:41:27.141Z,22.81
2023-02-05T07:42:27.131Z,22.80
2023-02-05T07:43:27.117Z,22.81
2023-02-05T07:44:27.116Z,22.81
2023-02-05T07:45:27.111Z,22.82
2023-02-05T07:46:27.124Z,22.82
2023-02-05T07:47:27.078Z,22.82
2023-02-05T07:48:27.072Z,22.82
2023-02-05T07:49:27.066Z,22.82
2023-02-05T07:50:27.061Z,22.83
2023-02-05T07:51:27.137Z,22.82
2023-02-05T07:52:27.030Z,22.84
2023-02-05T07:53:27.022Z,22.83
2023-02-05T07:54:27.012Z,22.84
2023-02-05T07:55:27.528Z,22.84
2023-02-05T07:56:27.004Z,22.85
2023-02-05T07:57:26.984Z,22.86
2023-02-05T07:58:26.976Z,22.85
2023-02-05T07:59:26.962Z,22.85
2023-02-05T08:00:26.954Z,22.85
2023-02-05T08:01:26.978Z,22.86
2023-02-05T08:02:26.934Z,22.85
2023-02-05T08:03:26.925Z,22.87
2023-02-05T08:04:26.972Z,22.87
2023-02-05T08:05:26.907Z,22.86
2023-02-05T08:06:26.896Z,22.86
2023-02-05T08:07:26.918Z,22.87
2023-02-05T08:08:26.890Z,22.86
2023-02-05T08:09:26.892Z,22.86
2023-02-05T08:10:26.956Z,22.86
2023-02-05T08:11:26.857Z,22.87
2023-02-05T08:12:26.856Z,22.87
2023-02-05T08:13:26.834Z,22.87
2023-02-05T08:14:26.830Z,22.87
2023-02-05T08:15:26.828Z,22.87
2023-02-05T08:16:26.829Z,22.88
2023-02-05T08:17:26.805Z,22.88
2023-02-05T08:18:27.299Z,22.88
2023-02-05T08:19:26.777Z,22.89
2023-02-05T08:20:26.765Z,22.89
2023-02-05T08:21:26.766Z,22.89
2023-02-05T08:22:26.747Z,22.90
2023-02-05T08:23:26.768Z,22.90
2023-02-05T08:24:26.732Z,22.90
2023-02-05T08:25:26.721Z,22.90
2023-02-05T08:26:26.710Z,22.90
2023-02-05T08:27:28.691Z,22.90
2023-02-05T08:28:26.690Z,22.91
2023-02-05T08:29:26.684Z,22.90
2023-02-05T08:30:26.788Z,22.91
2023-02-05T08:31:26.874Z,22.91
2023-02-05T08:32:26.657Z,22.91
2023-02-05T08:33:26.654Z,22.92
2023-02-05T08:34:26.637Z,22.92
2023-02-05T08:35:26.656Z,22.92
2023-02-05T08:36:26.635Z,22.91
2023-02-05T08:37:26.610Z,22.93
2023-02-05T08:38:26.598Z,22.92
2023-02-05T08:39:26.625Z,22.92
2023-02-05T08:40:26.741Z,22.92
2023-02-05T08:41:26.584Z,22.93
2023-02-05T08:42:26.559Z,22.93
2023-02-05T08:43:26.548Z,22.93
2023-02-05T08:44:26.541Z,22.94
2023-02-05T08:45:26.597Z,22.94
2023-02-05T08:46:31.651Z,22.94
2023-02-05T08:47:26.526Z,22.94
2023-02-05T08:48:26.500Z,22.93
2023-02-05T08:49:26.493Z,22.94
2023-02-05T08:50:26.511Z,22.94
2023-02-05T08:51:26.476Z,22.95
2023-02-05T08:52:26.472Z,22.95
2023-02-05T08:53:26.462Z,22.94
2023-02-05T08:54:26.456Z,22.95
2023-02-05T08:55:26.485Z,22.95
2023-02-05T08:56:26.427Z,22.96
2023-02-05T08:57:26.425Z,22.97
2023-02-05T08:58:26.411Z,22.96
2023-02-05T08:59:26.406Z,22.95
2023-02-05T09:00:26.633Z,22.96
2023-02-05T09:01:26.446Z,22.95
2023-02-05T09:02:29.413Z,22.96
2023-02-05T09:03:26.365Z,22.96
2023-02-05T09:04:26.395Z,22.96
2023-02-05T09:05:26.348Z,22.97
2023-02-05T09:06:26.335Z,22.97
2023-02-05T09:07:26.336Z,22.97
2023-02-05T09:08:26.321Z,22.97
2023-02-05T09:09:26.316Z,22.97
2023-02-05T09:10:26.296Z,22.98
2023-02-05T09:11:26.312Z,22.98
2023-02-05T09:12:26.280Z,22.98
2023-02-05T09:13:26.275Z,22.99
2023-02-05T09:14:26.262Z,22.99
2023-02-05T09:15:26.251Z,22.99
2023-02-05T09:16:26.316Z,22.99
2023-02-05T09:17:26.510Z,22.99
2023-02-05T09:18:26.227Z,23.00
2023-02-05T09:19:26.231Z,22.99
2023-02-05T09:20:26.207Z,23.00
2023-02-05T09:21:26.200Z,23.00
2023-02-05T09:22:26.204Z,23.00
2023-02-05T09:23:26.204Z,23.00
2023-02-05T09:24:26.174Z,23.01
2023-02-05T09:25:27.069Z,23.00
2023-02-05T09:26:26.156Z,23.01
2023-02-05T09:27:26.173Z,23.01
2023-02-05T09:28:26.133Z,23.02
2023-02-05T09:29:26.129Z,23.02
2023-02-05T09:30:26.119Z,23.02
2023-02-05T09:31:26.301Z,23.02
2023-02-05T09:32:26.104Z,23.02
2023-02-05T09:33:26.091Z,23.03
2023-02-05T09:34:26.075Z,23.04
2023-02-05T09:35:26.071Z,23.04
2023-02-05T09:36:26.060Z,23.04
2023-02-05T09:37:26.051Z,23.03
2023-02-05T09:38:26.098Z,23.04
2023-02-05T09:40:08.623Z,23.05
2023-02-05T09:40:28.196Z,23.04
2023-02-05T09:41:26.018Z,23.05
2023-02-05T09:42:26.081Z,23.05
2023-02-05T09:43:26.096Z,23.06
2023-02-05T09:44:25.985Z,23.05
2023-02-05T09:45:25.975Z,23.06
2023-02-05T09:46:26.094Z,23.05
2023-02-05T09:47:25.950Z,23.06
2023-02-05T09:48:25.946Z,23.05
2023-02-05T09:49:25.934Z,23.06
2023-02-05T09:50:25.929Z,23.07
2023-02-05T09:51:25.917Z,23.06
2023-02-05T09:52:25.910Z,23.06
2023-02-05T09:53:25.901Z,23.07
2023-02-05T09:54:25.882Z,23.07
2023-02-05T09:55:25.872Z,23.07
2023-02-05T09:56:25.866Z,23.07
2023-02-05T09:57:25.860Z,23.07
2023-02-05T09:58:25.864Z,23.07
2023-02-05T09:59:25.880Z,23.08
2023-02-05T10:00:25.830Z,23.07
2023-02-05T10:01:25.901Z,23.08
2023-02-05T10:02:25.811Z,23.08
2023-02-05T10:03:25.800Z,23.08
2023-02-05T10:04:25.792Z,23.08
2023-02-05T10:05:25.784Z,23.08
2023-02-05T10:06:25.770Z,23.09
2023-02-05T10:07:25.762Z,23.09
2023-02-05T10:08:25.756Z,23.09
2023-02-05T10:09:25.743Z,23.09
2023-02-05T10:10:25.740Z,23.10
2023-02-05T10:11:25.726Z,23.09
2023-02-05T10:12:25.713Z,23.09
2023-02-05T10:13:25.703Z,23.09
2023-02-05T10:14:25.699Z,23.09
2023-02-05T10:15:25.708Z,23.09
2023-02-05T10:16:25.674Z,23.10
2023-02-05T10:17:25.662Z,23.10
2023-02-05T10:18:25.657Z,23.11
2023-02-05T10:19:25.667Z,23.10
2023-02-05T10:20:25.645Z,23.11
2023-02-05T10:21:25.648Z,23.11
2023-02-05T10:22:25.622Z,23.11
2023-02-05T10:23:25.614Z,23.11
2023-02-05T10:24:25.603Z,23.11
2023-02-05T10:25:25.592Z,23.11
2023-02-05T10:26:25.584Z,23.11
2023-02-05T10:27:25.587Z,23.11
2023-02-05T10:28:25.572Z,23.12
2023-02-05T10:29:25.556Z,23.13
2023-02-05T10:30:25.571Z,23.12
2023-02-05T10:31:25.709Z,23.13
2023-02-05T10:32:25.527Z,23.13
2023-02-05T10:33:25.518Z,23.13
2023-02-05T10:34:25.509Z,23.14
2023-02-05T10:35:25.503Z,23.13
2023-02-05T10:36:25.501Z,23.14
2023-02-05T10:37:25.523Z,23.14
2023-02-05T10:38:25.470Z,23.15
2023-02-05T10:39:25.470Z,23.15
2023-02-05T10:40:25.451Z,23.15
2023-02-05T10:41:25.447Z,23.16
2023-02-05T10:42:25.439Z,23.15
2023-02-05T10:43:25.428Z,23.15
2023-02-05T10:44:25.422Z,23.15
2023-02-05T10:45:25.414Z,23.15
2023-02-05T10:46:25.434Z,23.15
2023-02-05T10:47:25.428Z,23.15
2023-02-05T10:48:25.379Z,23.16
2023-02-05T10:49:25.366Z,23.16
2023-02-05T10:50:25.375Z,23.16
2023-02-05T10:51:25.350Z,23.17
2023-02-05T10:52:25.347Z,23.16
2023-02-05T10:53:25.330Z,23.16
2023-02-05T10:54:25.318Z,23.16
2023-02-05T10:55:25.312Z,23.15
2023-02-05T10:56:25.313Z,23.16
2023-02-05T10:57:25.292Z,23.15
2023-02-05T10:58:25.291Z,23.16
2023-02-05T10:59:26.949Z,23.15
2023-02-05T11:00:25.357Z,23.16
2023-02-05T11:01:25.334Z,23.15
2023-02-05T11:02:25.270Z,23.15
2023-02-05T11:03:25.289Z,23.15
2023-02-05T11:04:25.226Z,23.15
2023-02-05T11:05:25.223Z,23.15
2023-02-05T11:06:25.226Z,23.15
2023-02-05T11:07:25.220Z,23.15
2023-02-05T11:08:25.189Z,23.15
2023-02-05T11:09:25.180Z,23.15
2023-02-05T11:10:25.174Z,23.15
2023-02-05T11:11:25.168Z,23.15
2023-02-05T11:12:25.152Z,23.16
2023-02-05T11:13:25.172Z,23.16
2023-02-05T11:14:25.143Z,23.16
2023-02-05T11:15:25.128Z,23.16
2023-02-05T11:16:25.123Z,23.15
2023-02-05T11:17:25.103Z,23.15
2023-02-05T11:18:25.093Z,23.16
2023-02-05T11:19:25.119Z,23.17
2023-02-05T11:20:25.112Z,23.16
2023-02-05T11:21:25.068Z,23.17
2023-02-05T11:22:25.051Z,23.17
2023-02-05T11:23:25.048Z,23.16
2023-02-05T11:24:25.036Z,23.16
2023-02-05T11:25:25.032Z,23.16
2023-02-05T11:26:25.016Z,23.16
2023-02-05T11:27:25.010Z,23.16
2023-02-05T11:28:25.000Z,23.16
2023-02-05T11:29:24.991Z,23.15
2023-02-05T11:30:49.621Z,23.16
2023-02-05T11:31:25.110Z,23.16
2023-02-05T11:32:25.083Z,23.16
2023-02-05T11:33:24.956Z,23.16
2023-02-05T11:34:24.942Z,23.16
2023-02-05T11:35:24.961Z,23.17
2023-02-05T11:36:24.934Z,23.16
2023-02-05T11:37:24.912Z,23.15
2023-02-05T11:38:24.925Z,23.15
2023-02-05T11:39:24.893Z,23.15
2023-02-05T11:40:24.888Z,23.14
2023-02-05T11:41:24.875Z,23.14
2023-02-05T11:42:24.879Z,23.14
2023-02-05T11:43:24.860Z,23.14
2023-02-05T11:44:24.852Z,23.14
2023-02-05T11:45:24.834Z,23.14
2023-02-05T11:46:24.868Z,23.14
2023-02-05T11:47:24.821Z,23.15
2023-02-05T11:48:24.808Z,23.15
2023-02-05T11:49:24.802Z,23.14
2023-02-05T11:50:24.793Z,23.14
2023-02-05T11:51:24.809Z,23.14
2023-02-05T11:52:24.770Z,23.14
2023-02-05T11:53:25.515Z,23.13
2023-02-05T11:54:24.754Z,23.13
2023-02-05T11:55:24.745Z,23.12
2023-02-05T11:56:25.469Z,23.12
2023-02-05T11:57:24.730Z,23.12
2023-02-05T11:58:34.931Z,23.12
2023-02-05T11:59:24.717Z,23.11
2023-02-05T12:00:24.693Z,23.11
2023-02-05T12:01:24.701Z,23.11
2023-02-05T12:02:24.676Z,23.11
2023-02-05T12:03:24.670Z,23.11
2023-02-05T12:04:24.673Z,23.11
2023-02-05T12:05:24.653Z,23.11
2023-02-05T12:06:24.643Z,23.10
2023-02-05T12:07:24.657Z,23.10
2023-02-05T12:08:24.618Z,23.10
2023-02-05T12:09:24.623Z,23.09
2023-02-05T12:10:24.607Z,23.09
2023-02-05T12:11:24.601Z,23.09
2023-02-05T12:12:24.591Z,23.09
2023-02-05T12:13:24.587Z,23.09
2023-02-05T12:14:24.564Z,23.09
2023-02-05T12:15:24.560Z,23.09
2023-02-05T12:16:24.574Z,23.10
2023-02-05T12:17:24.540Z,23.09
2023-02-05T12:18:24.530Z,23.10
2023-02-05T12:19:24.520Z,23.09
2023-02-05T12:20:24.515Z,23.08
2023-02-05T12:21:24.496Z,23.08
2023-02-05T12:22:24.487Z,23.08
2023-02-05T12:23:24.508Z,23.08
2023-02-05T12:24:24.480Z,23.08
2023-02-05T12:25:24.473Z,23.08
2023-02-05T12:26:24.462Z,23.07
2023-02-05T12:27:24.456Z,23.07
2023-02-05T12:28:24.432Z,23.06
2023-02-05T12:29:24.422Z,23.05
2023-02-05T12:30:24.456Z,23.05
2023-02-05T12:31:24.496Z,23.05
2023-02-05T12:32:24.401Z,23.05
2023-02-05T12:33:24.389Z,23.05
2023-02-05T12:34:24.429Z,23.04
2023-02-05T12:35:24.366Z,23.05
2023-02-05T12:36:24.354Z,23.04
2023-02-05T12:37:24.348Z,23.04
2023-02-05T12:38:32.147Z,23.03
2023-02-05T12:39:24.358Z,23.03
2023-02-05T12:40:24.317Z,23.04
2023-02-05T12:41:24.340Z,23.04
2023-02-05T12:42:24.303Z,23.04
2023-02-05T12:43:24.287Z,23.03
2023-02-05T12:44:24.277Z,23.04
2023-02-05T12:45:24.268Z,23.04
2023-02-05T12:46:24.258Z,23.04
2023-02-05T12:47:24.250Z,23.03
2023-02-05T12:48:24.245Z,23.03
2023-02-05T12:49:24.233Z,23.03
2023-02-05T12:50:24.219Z,23.02
2023-02-05T12:51:24.210Z,23.02
2023-02-05T12:52:24.198Z,23.02
2023-02-05T12:53:24.193Z,23.02
2023-02-05T12:54:24.187Z,23.02
2023-02-05T12:55:24.204Z,23.02
2023-02-05T12:56:24.163Z,23.01
2023-02-05T12:57:24.160Z,23.01
2023-02-05T12:58:24.147Z,23.00
2023-02-05T12:59:24.155Z,23.00
2023-02-05T13:00:24.125Z,23.00
2023-02-05T13:01:24.152Z,22.99
2023-02-05T13:02:24.117Z,23.00
2023-02-05T13:03:24.104Z,23.00
2023-02-05T13:04:24.149Z,23.00
2023-02-05T13:05:24.087Z,23.00
2023-02-05T13:06:24.073Z,23.01
2023-02-05T13:07:24.061Z,23.00
2023-02-05T13:08:24.054Z,23.01
2023-02-05T13:09:24.047Z,23.00
2023-02-05T13:10:24.043Z,23.01
2023-02-05T13:11:24.059Z,23.00
2023-02-05T13:12:24.015Z,23.00
2023-02-05T13:13:24.005Z,23.00
2023-02-05T13:14:24.017Z,23.00
2023-02-05T13:15:24.039Z,23.01
2023-02-05T13:16:24.021Z,22.99
2023-02-05T13:17:23.977Z,23.00
2023-02-05T13:18:23.965Z,22.99
2023-02-05T13:19:23.966Z,22.98
2023-02-05T13:20:23.941Z,22.97
2023-02-05T13:21:23.940Z,22.97
2023-02-05T13:22:23.928Z,22.97
2023-02-05T13:23:23.917Z,22.97
2023-02-05T13:24:23.906Z,22.97
2023-02-05T13:25:30.003Z,22.97
2023-02-05T13:26:23.922Z,22.96
2023-02-05T13:27:23.900Z,22.96
2023-02-05T13:28:23.879Z,22.97
2023-02-05T13:29:23.855Z,22.97
2023-02-05T13:30:23.879Z,22.97
2023-02-05T13:31:23.999Z,22.97
2023-02-05T13:32:23.835Z,22.97
2023-02-05T13:33:23.828Z,22.97
2023-02-05T13:34:23.818Z,22.97
2023-02-05T13:35:23.807Z,22.96
2023-02-05T13:36:23.788Z,22.96
2023-02-05T13:37:23.789Z,22.96
2023-02-05T13:38:23.771Z,22.95
2023-02-05T13:39:26.477Z,22.95
2023-02-05T13:40:23.750Z,22.94
2023-02-05T13:41:23.747Z,22.94
2023-02-05T13:42:23.731Z,22.94
2023-02-05T13:43:23.752Z,22.94